Terminal Aerodrome Forecast
Issued by NWS

Home | Current Version | Previous Version | Graphics & Text | Print | Product List | Glossary On
Versions: 1 2 3 4 5 6 7 8 9 10 11 12 13 14
000
FTUS42 KMHX 172300 RRA
TAFISO
TAF
KISO 172341Z 1800/1824 04005KT P6SM SCT025 BKN050
     FM180730 03003KT 4SM BR SCT007 BKN025
     FM181300 04005KT P6SM BKN035
      AMD LTD TO CLD VIS AND WIND=

USA.gov is the U.S. government's official web portal to all federal, state and local government web resources and services.